sensor_id;sensor_type;location;lat;lon;timestamp;P1;durP1;ratioP1;P2;durP2;ratioP2
16822;SDS011;8528;49.976;11.858;2024-03-29T00:01:17;2.43;;;2.23;;
16822;SDS011;8528;49.976;11.858;2024-03-29T00:03:43;2.53;;;2.27;;
16822;SDS011;8528;49.976;11.858;2024-03-29T00:06:09;4.60;;;2.23;;
16822;SDS011;8528;49.976;11.858;2024-03-29T00:08:35;2.33;;;2.13;;
16822;SDS011;8528;49.976;11.858;2024-03-29T00:11:02;5.37;;;2.80;;
16822;SDS011;8528;49.976;11.858;2024-03-29T00:13:28;3.57;;;2.30;;
16822;SDS011;8528;49.976;11.858;2024-03-29T00:15:54;2.30;;;2.10;;
16822;SDS011;8528;49.976;11.858;2024-03-29T00:18:20;5.23;;;2.60;;
16822;SDS011;8528;49.976;11.858;2024-03-29T00:20:47;6.70;;;2.57;;
16822;SDS011;8528;49.976;11.858;2024-03-29T00:23:13;2.80;;;2.30;;
16822;SDS011;8528;49.976;11.858;2024-03-29T00:25:39;3.30;;;2.27;;
16822;SDS011;8528;49.976;11.858;2024-03-29T00:28:05;2.43;;;2.23;;
16822;SDS011;8528;49.976;11.858;2024-03-29T00:30:31;4.73;;;2.20;;
16822;SDS011;8528;49.976;11.858;2024-03-29T00:32:56;2.30;;;2.00;;
16822;SDS011;8528;49.976;11.858;2024-03-29T00:35:22;3.03;;;2.30;;
16822;SDS011;8528;49.976;11.858;2024-03-29T00:37:48;2.47;;;2.10;;
16822;SDS011;8528;49.976;11.858;2024-03-29T00:40:15;3.03;;;2.33;;
16822;SDS011;8528;49.976;11.858;2024-03-29T00:42:42;3.93;;;1.90;;
16822;SDS011;8528;49.976;11.858;2024-03-29T00:45:08;2.13;;;1.93;;
16822;SDS011;8528;49.976;11.858;2024-03-29T00:47:34;3.53;;;2.63;;
16822;SDS011;8528;49.976;11.858;2024-03-29T00:50:00;3.33;;;2.20;;
16822;SDS011;8528;49.976;11.858;2024-03-29T00:52:26;2.97;;;2.60;;
16822;SDS011;8528;49.976;11.858;2024-03-29T00:54:52;2.97;;;2.40;;
16822;SDS011;8528;49.976;11.858;2024-03-29T00:57:18;4.03;;;2.77;;
16822;SDS011;8528;49.976;11.858;2024-03-29T00:59:44;2.90;;;2.60;;
16822;SDS011;8528;49.976;11.858;2024-03-29T01:02:10;3.43;;;2.43;;
16822;SDS011;8528;49.976;11.858;2024-03-29T01:04:36;2.37;;;2.13;;
16822;SDS011;8528;49.976;11.858;2024-03-29T01:07:03;2.60;;;2.40;;
16822;SDS011;8528;49.976;11.858;2024-03-29T01:09:29;4.10;;;2.53;;
16822;SDS011;8528;49.976;11.858;2024-03-29T01:11:55;3.50;;;2.57;;
16822;SDS011;8528;49.976;11.858;2024-03-29T01:14:21;2.93;;;2.30;;
16822;SDS011;8528;49.976;11.858;2024-03-29T01:16:47;3.53;;;2.67;;
16822;SDS011;8528;49.976;11.858;2024-03-29T01:19:13;3.27;;;2.70;;
16822;SDS011;8528;49.976;11.858;2024-03-29T01:21:38;3.60;;;2.67;;
16822;SDS011;8528;49.976;11.858;2024-03-29T01:24:04;4.47;;;2.93;;
16822;SDS011;8528;49.976;11.858;2024-03-29T01:26:30;3.50;;;3.00;;
16822;SDS011;8528;49.976;11.858;2024-03-29T01:28:56;3.73;;;2.80;;
16822;SDS011;8528;49.976;11.858;2024-03-29T01:31:22;3.87;;;2.83;;
16822;SDS011;8528;49.976;11.858;2024-03-29T01:33:49;4.40;;;3.00;;
16822;SDS011;8528;49.976;11.858;2024-03-29T01:36:15;4.27;;;2.50;;
16822;SDS011;8528;49.976;11.858;2024-03-29T01:38:42;3.20;;;2.60;;
16822;SDS011;8528;49.976;11.858;2024-03-29T01:41:10;4.07;;;2.90;;
16822;SDS011;8528;49.976;11.858;2024-03-29T01:43:37;3.57;;;3.10;;
16822;SDS011;8528;49.976;11.858;2024-03-29T01:46:03;11.23;;;5.73;;
16822;SDS011;8528;49.976;11.858;2024-03-29T01:48:33;8.13;;;4.93;;
16822;SDS011;8528;49.976;11.858;2024-03-29T01:50:59;5.67;;;3.63;;
16822;SDS011;8528;49.976;11.858;2024-03-29T01:53:26;12.43;;;6.83;;
16822;SDS011;8528;49.976;11.858;2024-03-29T01:55:53;13.63;;;7.10;;
16822;SDS011;8528;49.976;11.858;2024-03-29T01:58:20;7.53;;;4.57;;
16822;SDS011;8528;49.976;11.858;2024-03-29T02:00:54;10.13;;;4.43;;
16822;SDS011;8528;49.976;11.858;2024-03-29T02:03:22;3.83;;;2.90;;
16822;SDS011;8528;49.976;11.858;2024-03-29T02:05:48;6.63;;;3.53;;
16822;SDS011;8528;49.976;11.858;2024-03-29T02:08:15;5.70;;;3.27;;
16822;SDS011;8528;49.976;11.858;2024-03-29T02:10:42;3.20;;;2.47;;
16822;SDS011;8528;49.976;11.858;2024-03-29T02:13:09;4.77;;;2.93;;
16822;SDS011;8528;49.976;11.858;2024-03-29T02:15:35;3.00;;;2.30;;
16822;SDS011;8528;49.976;11.858;2024-03-29T02:18:01;3.40;;;2.37;;
16822;SDS011;8528;49.976;11.858;2024-03-29T02:20:28;2.73;;;2.50;;
16822;SDS011;8528;49.976;11.858;2024-03-29T02:22:55;4.67;;;2.33;;
16822;SDS011;8528;49.976;11.858;2024-03-29T02:25:38;4.20;;;2.53;;
16822;SDS011;8528;49.976;11.858;2024-03-29T02:28:05;2.93;;;2.50;;
16822;SDS011;8528;49.976;11.858;2024-03-29T02:30:31;3.53;;;2.40;;
16822;SDS011;8528;49.976;11.858;2024-03-29T02:32:58;3.10;;;2.40;;
16822;SDS011;8528;49.976;11.858;2024-03-29T02:35:24;2.30;;;2.10;;
16822;SDS011;8528;49.976;11.858;2024-03-29T02:37:50;3.43;;;2.13;;
16822;SDS011;8528;49.976;11.858;2024-03-29T02:40:17;2.77;;;2.10;;
16822;SDS011;8528;49.976;11.858;2024-03-29T02:42:43;3.20;;;1.97;;
16822;SDS011;8528;49.976;11.858;2024-03-29T02:45:09;3.33;;;2.37;;
16822;SDS011;8528;49.976;11.858;2024-03-29T02:47:35;2.73;;;1.70;;
16822;SDS011;8528;49.976;11.858;2024-03-29T02:50:01;2.33;;;2.00;;
16822;SDS011;8528;49.976;11.858;2024-03-29T02:52:27;2.53;;;2.13;;
16822;SDS011;8528;49.976;11.858;2024-03-29T02:54:54;2.27;;;1.93;;
16822;SDS011;8528;49.976;11.858;2024-03-29T02:57:20;3.80;;;2.10;;
16822;SDS011;8528;49.976;11.858;2024-03-29T02:59:45;4.23;;;2.20;;
16822;SDS011;8528;49.976;11.858;2024-03-29T03:02:11;2.37;;;2.07;;
16822;SDS011;8528;49.976;11.858;2024-03-29T03:04:37;2.30;;;2.10;;
16822;SDS011;8528;49.976;11.858;2024-03-29T03:07:03;2.50;;;2.30;;
16822;SDS011;8528;49.976;11.858;2024-03-29T03:09:48;2.50;;;1.97;;
16822;SDS011;8528;49.976;11.858;2024-03-29T03:12:32;2.33;;;2.10;;
16822;SDS011;8528;49.976;11.858;2024-03-29T03:14:59;2.57;;;2.37;;
16822;SDS011;8528;49.976;11.858;2024-03-29T03:17:28;2.13;;;1.90;;
16822;SDS011;8528;49.976;11.858;2024-03-29T03:19:53;1.77;;;1.67;;
16822;SDS011;8528;49.976;11.858;2024-03-29T03:22:20;2.20;;;1.77;;
16822;SDS011;8528;49.976;11.858;2024-03-29T03:24:46;3.03;;;2.30;;
16822;SDS011;8528;49.976;11.858;2024-03-29T03:27:12;2.13;;;1.90;;
16822;SDS011;8528;49.976;11.858;2024-03-29T03:29:38;2.50;;;1.97;;
16822;SDS011;8528;49.976;11.858;2024-03-29T03:32:05;1.83;;;1.73;;
16822;SDS011;8528;49.976;11.858;2024-03-29T03:34:31;2.17;;;1.77;;
16822;SDS011;8528;49.976;11.858;2024-03-29T03:36:58;2.17;;;1.87;;
16822;SDS011;8528;49.976;11.858;2024-03-29T03:39:24;2.80;;;1.93;;
16822;SDS011;8528;49.976;11.858;2024-03-29T03:41:50;2.80;;;1.87;;
16822;SDS011;8528;49.976;11.858;2024-03-29T03:44:16;2.20;;;1.93;;
16822;SDS011;8528;49.976;11.858;2024-03-29T03:46:42;2.53;;;2.00;;
16822;SDS011;8528;49.976;11.858;2024-03-29T03:49:08;2.10;;;1.90;;
16822;SDS011;8528;49.976;11.858;2024-03-29T03:51:34;1.80;;;1.70;;
16822;SDS011;8528;49.976;11.858;2024-03-29T03:54:00;2.30;;;1.90;;
16822;SDS011;8528;49.976;11.858;2024-03-29T03:56:26;4.27;;;2.10;;
16822;SDS011;8528;49.976;11.858;2024-03-29T03:58:52;2.03;;;1.83;;
16822;SDS011;8528;49.976;11.858;2024-03-29T04:01:18;1.80;;;1.70;;
16822;SDS011;8528;49.976;11.858;2024-03-29T04:03:44;3.03;;;2.13;;
16822;SDS011;8528;49.976;11.858;2024-03-29T04:06:10;2.30;;;2.10;;
16822;SDS011;8528;49.976;11.858;2024-03-29T04:08:35;4.23;;;1.93;;
16822;SDS011;8528;49.976;11.858;2024-03-29T04:11:02;2.60;;;2.30;;
16822;SDS011;8528;49.976;11.858;2024-03-29T04:13:28;2.20;;;1.70;;
16822;SDS011;8528;49.976;11.858;2024-03-29T04:16:01;2.73;;;1.90;;
16822;SDS011;8528;49.976;11.858;2024-03-29T04:18:27;3.93;;;1.83;;
16822;SDS011;8528;49.976;11.858;2024-03-29T04:20:57;1.90;;;1.70;;
16822;SDS011;8528;49.976;11.858;2024-03-29T04:23:23;1.93;;;1.63;;
16822;SDS011;8528;49.976;11.858;2024-03-29T04:25:53;2.43;;;1.70;;
16822;SDS011;8528;49.976;11.858;2024-03-29T04:28:19;1.90;;;1.70;;
16822;SDS011;8528;49.976;11.858;2024-03-29T04:33:17;3.07;;;2.13;;
16822;SDS011;8528;49.976;11.858;2024-03-29T04:35:59;2.03;;;1.77;;
16822;SDS011;8528;49.976;11.858;2024-03-29T04:38:28;3.10;;;1.90;;
16822;SDS011;8528;49.976;11.858;2024-03-29T04:40:55;3.73;;;2.10;;
16822;SDS011;8528;49.976;11.858;2024-03-29T04:43:23;2.23;;;2.03;;
16822;SDS011;8528;49.976;11.858;2024-03-29T04:45:49;2.27;;;2.07;;
16822;SDS011;8528;49.976;11.858;2024-03-29T04:48:15;3.70;;;2.00;;
16822;SDS011;8528;49.976;11.858;2024-03-29T04:50:42;3.53;;;1.90;;
16822;SDS011;8528;49.976;11.858;2024-03-29T04:53:08;2.07;;;1.87;;
16822;SDS011;8528;49.976;11.858;2024-03-29T04:55:34;2.50;;;1.80;;
16822;SDS011;8528;49.976;11.858;2024-03-29T04:58:04;1.77;;;1.67;;
16822;SDS011;8528;49.976;11.858;2024-03-29T05:00:31;1.50;;;1.40;;
16822;SDS011;8528;49.976;11.858;2024-03-29T05:02:56;1.60;;;1.50;;
16822;SDS011;8528;49.976;11.858;2024-03-29T05:05:22;2.00;;;1.80;;
16822;SDS011;8528;49.976;11.858;2024-03-29T05:07:48;2.60;;;1.50;;
16822;SDS011;8528;49.976;11.858;2024-03-29T05:10:14;3.70;;;1.67;;
16822;SDS011;8528;49.976;11.858;2024-03-29T05:12:41;1.70;;;1.47;;
16822;SDS011;8528;49.976;11.858;2024-03-29T05:15:07;2.60;;;1.80;;
16822;SDS011;8528;49.976;11.858;2024-03-29T05:17:33;3.50;;;2.00;;
16822;SDS011;8528;49.976;11.858;2024-03-29T05:19:59;1.97;;;1.80;;
16822;SDS011;8528;49.976;11.858;2024-03-29T05:22:25;2.67;;;1.60;;
16822;SDS011;8528;49.976;11.858;2024-03-29T05:24:54;1.83;;;1.50;;
16822;SDS011;8528;49.976;11.858;2024-03-29T05:27:20;1.17;;;1.10;;
16822;SDS011;8528;49.976;11.858;2024-03-29T05:29:46;1.87;;;1.20;;
16822;SDS011;8528;49.976;11.858;2024-03-29T05:32:12;1.30;;;1.20;;
16822;SDS011;8528;49.976;11.858;2024-03-29T05:34:39;2.00;;;1.47;;
16822;SDS011;8528;49.976;11.858;2024-03-29T05:37:04;1.80;;;1.43;;
16822;SDS011;8528;49.976;11.858;2024-03-29T05:39:31;1.40;;;1.30;;
16822;SDS011;8528;49.976;11.858;2024-03-29T05:41:57;1.40;;;1.30;;
16822;SDS011;8528;49.976;11.858;2024-03-29T05:44:23;1.60;;;1.20;;
16822;SDS011;8528;49.976;11.858;2024-03-29T05:46:50;2.30;;;1.20;;
16822;SDS011;8528;49.976;11.858;2024-03-29T05:49:15;1.30;;;1.20;;
16822;SDS011;8528;49.976;11.858;2024-03-29T05:51:42;3.10;;;1.30;;
16822;SDS011;8528;49.976;11.858;2024-03-29T05:54:08;1.40;;;1.30;;
16822;SDS011;8528;49.976;11.858;2024-03-29T05:56:33;1.80;;;1.40;;
16822;SDS011;8528;49.976;11.858;2024-03-29T05:59:00;1.20;;;1.10;;
16822;SDS011;8528;49.976;11.858;2024-03-29T06:01:26;1.87;;;1.40;;
16822;SDS011;8528;49.976;11.858;2024-03-29T06:03:52;1.40;;;1.10;;
16822;SDS011;8528;49.976;11.858;2024-03-29T06:06:21;1.63;;;1.10;;
16822;SDS011;8528;49.976;11.858;2024-03-29T06:08:51;1.73;;;1.20;;
16822;SDS011;8528;49.976;11.858;2024-03-29T06:11:16;1.77;;;1.17;;
16822;SDS011;8528;49.976;11.858;2024-03-29T06:13:43;1.90;;;1.13;;
16822;SDS011;8528;49.976;11.858;2024-03-29T06:16:18;1.13;;;1.10;;
16822;SDS011;8528;49.976;11.858;2024-03-29T06:19:06;1.30;;;1.20;;
16822;SDS011;8528;49.976;11.858;2024-03-29T06:21:32;1.10;;;1.00;;
16822;SDS011;8528;49.976;11.858;2024-03-29T06:24:07;2.40;;;1.40;;
16822;SDS011;8528;49.976;11.858;2024-03-29T06:26:37;1.30;;;1.20;;
16822;SDS011;8528;49.976;11.858;2024-03-29T06:29:03;1.27;;;1.17;;
16822;SDS011;8528;49.976;11.858;2024-03-29T06:31:30;1.20;;;1.10;;
16822;SDS011;8528;49.976;11.858;2024-03-29T06:33:57;1.20;;;1.07;;
16822;SDS011;8528;49.976;11.858;2024-03-29T06:36:23;1.33;;;1.23;;
16822;SDS011;8528;49.976;11.858;2024-03-29T06:38:50;1.17;;;1.07;;
16822;SDS011;8528;49.976;11.858;2024-03-29T06:41:17;1.20;;;1.10;;
16822;SDS011;8528;49.976;11.858;2024-03-29T06:43:43;1.70;;;1.20;;
16822;SDS011;8528;49.976;11.858;2024-03-29T06:46:13;0.83;;;0.83;;
16822;SDS011;8528;49.976;11.858;2024-03-29T06:48:40;1.10;;;1.07;;
16822;SDS011;8528;49.976;11.858;2024-03-29T06:51:06;1.33;;;0.80;;
16822;SDS011;8528;49.976;11.858;2024-03-29T06:53:33;1.10;;;1.00;;
16822;SDS011;8528;49.976;11.858;2024-03-29T06:56:02;1.10;;;1.00;;
16822;SDS011;8528;49.976;11.858;2024-03-29T06:58:28;1.70;;;1.10;;
16822;SDS011;8528;49.976;11.858;2024-03-29T07:00:54;1.17;;;1.03;;
16822;SDS011;8528;49.976;11.858;2024-03-29T07:03:20;4.30;;;1.67;;
16822;SDS011;8528;49.976;11.858;2024-03-29T07:05:46;2.13;;;1.20;;
16822;SDS011;8528;49.976;11.858;2024-03-29T07:08:13;1.03;;;1.00;;
16822;SDS011;8528;49.976;11.858;2024-03-29T07:10:39;1.43;;;1.30;;
16822;SDS011;8528;49.976;11.858;2024-03-29T07:13:08;1.20;;;1.00;;
16822;SDS011;8528;49.976;11.858;2024-03-29T07:15:35;2.30;;;1.10;;
16822;SDS011;8528;49.976;11.858;2024-03-29T07:18:01;1.10;;;1.00;;
16822;SDS011;8528;49.976;11.858;2024-03-29T07:20:30;1.67;;;1.23;;
16822;SDS011;8528;49.976;11.858;2024-03-29T07:22:56;1.20;;;0.97;;
16822;SDS011;8528;49.976;11.858;2024-03-29T07:25:22;0.93;;;0.90;;
16822;SDS011;8528;49.976;11.858;2024-03-29T07:27:47;1.00;;;0.90;;
16822;SDS011;8528;49.976;11.858;2024-03-29T07:30:15;1.37;;;1.00;;
16822;SDS011;8528;49.976;11.858;2024-03-29T07:32:42;1.57;;;0.90;;
16822;SDS011;8528;49.976;11.858;2024-03-29T07:35:08;2.13;;;1.20;;
16822;SDS011;8528;49.976;11.858;2024-03-29T07:37:34;2.00;;;1.00;;
16822;SDS011;8528;49.976;11.858;2024-03-29T07:40:00;0.80;;;0.80;;
16822;SDS011;8528;49.976;11.858;2024-03-29T07:42:26;0.80;;;0.80;;
16822;SDS011;8528;49.976;11.858;2024-03-29T07:44:51;1.03;;;1.00;;
16822;SDS011;8528;49.976;11.858;2024-03-29T07:47:18;1.00;;;0.97;;
16822;SDS011;8528;49.976;11.858;2024-03-29T07:49:44;1.23;;;0.97;;
16822;SDS011;8528;49.976;11.858;2024-03-29T07:52:11;0.80;;;0.80;;
16822;SDS011;8528;49.976;11.858;2024-03-29T07:54:37;1.97;;;1.00;;
16822;SDS011;8528;49.976;11.858;2024-03-29T07:57:03;1.03;;;0.90;;
16822;SDS011;8528;49.976;11.858;2024-03-29T07:59:29;0.87;;;0.87;;
16822;SDS011;8528;49.976;11.858;2024-03-29T08:01:55;1.30;;;0.90;;
16822;SDS011;8528;49.976;11.858;2024-03-29T08:04:23;2.00;;;1.00;;
16822;SDS011;8528;49.976;11.858;2024-03-29T08:06:51;1.30;;;0.80;;
16822;SDS011;8528;49.976;11.858;2024-03-29T08:09:17;1.30;;;1.00;;
16822;SDS011;8528;49.976;11.858;2024-03-29T08:11:43;2.37;;;0.80;;
16822;SDS011;8528;49.976;11.858;2024-03-29T08:14:09;0.80;;;0.80;;
16822;SDS011;8528;49.976;11.858;2024-03-29T08:16:35;0.97;;;0.90;;
16822;SDS011;8528;49.976;11.858;2024-03-29T08:19:00;0.70;;;0.70;;
16822;SDS011;8528;49.976;11.858;2024-03-29T08:21:27;1.00;;;0.90;;
16822;SDS011;8528;49.976;11.858;2024-03-29T08:23:53;1.53;;;0.97;;
16822;SDS011;8528;49.976;11.858;2024-03-29T08:26:20;1.97;;;0.80;;
16822;SDS011;8528;49.976;11.858;2024-03-29T08:28:46;2.00;;;0.90;;
16822;SDS011;8528;49.976;11.858;2024-03-29T08:31:12;0.90;;;0.90;;
16822;SDS011;8528;49.976;11.858;2024-03-29T08:33:38;1.80;;;1.40;;
16822;SDS011;8528;49.976;11.858;2024-03-29T08:36:05;4.10;;;1.70;;
16822;SDS011;8528;49.976;11.858;2024-03-29T08:38:32;1.70;;;1.60;;
16822;SDS011;8528;49.976;11.858;2024-03-29T08:40:58;1.73;;;0.93;;
16822;SDS011;8528;49.976;11.858;2024-03-29T08:43:24;1.13;;;0.90;;
16822;SDS011;8528;49.976;11.858;2024-03-29T08:45:50;1.20;;;1.10;;
16822;SDS011;8528;49.976;11.858;2024-03-29T08:48:16;0.73;;;0.73;;
16822;SDS011;8528;49.976;11.858;2024-03-29T08:50:42;1.77;;;0.80;;
16822;SDS011;8528;49.976;11.858;2024-03-29T08:53:08;1.33;;;1.00;;
16822;SDS011;8528;49.976;11.858;2024-03-29T08:55:34;1.13;;;1.00;;
16822;SDS011;8528;49.976;11.858;2024-03-29T08:58:02;1.63;;;0.83;;
16822;SDS011;8528;49.976;11.858;2024-03-29T09:00:28;0.90;;;0.80;;
16822;SDS011;8528;49.976;11.858;2024-03-29T09:02:55;1.23;;;1.00;;
16822;SDS011;8528;49.976;11.858;2024-03-29T09:05:21;0.90;;;0.90;;
16822;SDS011;8528;49.976;11.858;2024-03-29T09:07:48;1.27;;;0.73;;
16822;SDS011;8528;49.976;11.858;2024-03-29T09:10:15;1.37;;;0.90;;
16822;SDS011;8528;49.976;11.858;2024-03-29T09:12:41;0.80;;;0.80;;
16822;SDS011;8528;49.976;11.858;2024-03-29T09:15:07;0.90;;;0.90;;
16822;SDS011;8528;49.976;11.858;2024-03-29T09:17:45;1.90;;;1.00;;
16822;SDS011;8528;49.976;11.858;2024-03-29T09:20:12;0.80;;;0.80;;
16822;SDS011;8528;49.976;11.858;2024-03-29T09:22:39;1.50;;;0.93;;
16822;SDS011;8528;49.976;11.858;2024-03-29T09:25:05;1.37;;;1.07;;
16822;SDS011;8528;49.976;11.858;2024-03-29T09:27:31;1.07;;;0.97;;
16822;SDS011;8528;49.976;11.858;2024-03-29T09:30:05;1.70;;;1.10;;
16822;SDS011;8528;49.976;11.858;2024-03-29T09:32:32;1.30;;;0.87;;
16822;SDS011;8528;49.976;11.858;2024-03-29T09:34:58;1.47;;;0.87;;
16822;SDS011;8528;49.976;11.858;2024-03-29T09:37:25;1.17;;;1.00;;
16822;SDS011;8528;49.976;11.858;2024-03-29T09:39:51;0.80;;;0.80;;
16822;SDS011;8528;49.976;11.858;2024-03-29T09:42:17;0.90;;;0.90;;
16822;SDS011;8528;49.976;11.858;2024-03-29T09:44:47;1.47;;;0.90;;
16822;SDS011;8528;49.976;11.858;2024-03-29T09:47:15;1.53;;;0.90;;
16822;SDS011;8528;49.976;11.858;2024-03-29T09:49:44;1.43;;;1.00;;
16822;SDS011;8528;49.976;11.858;2024-03-29T09:52:13;1.50;;;1.10;;
16822;SDS011;8528;49.976;11.858;2024-03-29T09:54:40;1.43;;;1.20;;
16822;SDS011;8528;49.976;11.858;2024-03-29T09:57:05;4.43;;;1.20;;
16822;SDS011;8528;49.976;11.858;2024-03-29T09:59:33;0.80;;;0.80;;
16822;SDS011;8528;49.976;11.858;2024-03-29T10:02:00;1.13;;;1.00;;
16822;SDS011;8528;49.976;11.858;2024-03-29T10:04:32;3.07;;;1.10;;
16822;SDS011;8528;49.976;11.858;2024-03-29T10:07:00;1.67;;;0.90;;
16822;SDS011;8528;49.976;11.858;2024-03-29T10:09:26;1.00;;;0.90;;
16822;SDS011;8528;49.976;11.858;2024-03-29T10:11:55;1.77;;;1.13;;
16822;SDS011;8528;49.976;11.858;2024-03-29T10:14:20;1.30;;;1.20;;
16822;SDS011;8528;49.976;11.858;2024-03-29T10:16:50;3.10;;;1.20;;
16822;SDS011;8528;49.976;11.858;2024-03-29T10:19:17;0.93;;;0.80;;
16822;SDS011;8528;49.976;11.858;2024-03-29T10:21:43;1.63;;;1.00;;
16822;SDS011;8528;49.976;11.858;2024-03-29T10:24:12;2.63;;;1.10;;
16822;SDS011;8528;49.976;11.858;2024-03-29T10:26:40;1.47;;;1.37;;
16822;SDS011;8528;49.976;11.858;2024-03-29T10:29:07;3.33;;;1.10;;
16822;SDS011;8528;49.976;11.858;2024-03-29T10:31:37;2.47;;;1.30;;
16822;SDS011;8528;49.976;11.858;2024-03-29T10:34:03;1.73;;;1.13;;
16822;SDS011;8528;49.976;11.858;2024-03-29T10:36:34;2.50;;;1.23;;
16822;SDS011;8528;49.976;11.858;2024-03-29T10:39:11;1.30;;;1.20;;
16822;SDS011;8528;49.976;11.858;2024-03-29T10:41:40;4.00;;;1.40;;
16822;SDS011;8528;49.976;11.858;2024-03-29T10:44:10;2.77;;;1.20;;
16822;SDS011;8528;49.976;11.858;2024-03-29T10:46:40;2.77;;;1.47;;
16822;SDS011;8528;49.976;11.858;2024-03-29T10:49:10;2.07;;;1.27;;
16822;SDS011;8528;49.976;11.858;2024-03-29T10:51:40;3.23;;;1.20;;
16822;SDS011;8528;49.976;11.858;2024-03-29T10:54:10;1.60;;;1.10;;
16822;SDS011;8528;49.976;11.858;2024-03-29T10:56:37;1.20;;;1.10;;
16822;SDS011;8528;49.976;11.858;2024-03-29T10:59:12;1.83;;;1.20;;
16822;SDS011;8528;49.976;11.858;2024-03-29T11:01:53;1.70;;;1.50;;
16822;SDS011;8528;49.976;11.858;2024-03-29T11:04:27;3.07;;;1.40;;
16822;SDS011;8528;49.976;11.858;2024-03-29T11:07:00;2.10;;;1.20;;
16822;SDS011;8528;49.976;11.858;2024-03-29T11:09:30;1.50;;;1.40;;
16822;SDS011;8528;49.976;11.858;2024-03-29T11:11:58;2.93;;;1.90;;
16822;SDS011;8528;49.976;11.858;2024-03-29T11:14:31;2.47;;;1.93;;
16822;SDS011;8528;49.976;11.858;2024-03-29T11:17:02;2.83;;;2.50;;
16822;SDS011;8528;49.976;11.858;2024-03-29T11:19:29;2.10;;;1.70;;
16822;SDS011;8528;49.976;11.858;2024-03-29T11:21:55;3.33;;;1.80;;
16822;SDS011;8528;49.976;11.858;2024-03-29T11:24:24;3.10;;;1.97;;
16822;SDS011;8528;49.976;11.858;2024-03-29T11:26:54;2.73;;;1.60;;
16822;SDS011;8528;49.976;11.858;2024-03-29T11:29:20;1.40;;;1.30;;
16822;SDS011;8528;49.976;11.858;2024-03-29T11:31:47;2.27;;;1.50;;
16822;SDS011;8528;49.976;11.858;2024-03-29T11:34:19;1.87;;;1.50;;
16822;SDS011;8528;49.976;11.858;2024-03-29T11:36:45;2.37;;;1.90;;
16822;SDS011;8528;49.976;11.858;2024-03-29T11:39:21;3.30;;;2.13;;
16822;SDS011;8528;49.976;11.858;2024-03-29T11:41:50;2.77;;;1.50;;
16822;SDS011;8528;49.976;11.858;2024-03-29T11:44:16;2.27;;;1.80;;
16822;SDS011;8528;49.976;11.858;2024-03-29T11:46:42;2.07;;;1.77;;
16822;SDS011;8528;49.976;11.858;2024-03-29T11:49:12;1.67;;;1.37;;
16822;SDS011;8528;49.976;11.858;2024-03-29T11:51:38;1.13;;;1.03;;
16822;SDS011;8528;49.976;11.858;2024-03-29T11:54:06;1.87;;;1.20;;
16822;SDS011;8528;49.976;11.858;2024-03-29T11:56:32;1.30;;;1.20;;
16822;SDS011;8528;49.976;11.858;2024-03-29T11:58:58;1.40;;;1.30;;
16822;SDS011;8528;49.976;11.858;2024-03-29T12:01:27;2.03;;;1.50;;
16822;SDS011;8528;49.976;11.858;2024-03-29T12:03:54;1.47;;;1.37;;
16822;SDS011;8528;49.976;11.858;2024-03-29T12:06:20;1.43;;;1.00;;
16822;SDS011;8528;49.976;11.858;2024-03-29T12:08:47;1.20;;;1.10;;
16822;SDS011;8528;49.976;11.858;2024-03-29T12:11:14;1.83;;;1.23;;
16822;SDS011;8528;49.976;11.858;2024-03-29T12:13:41;2.20;;;1.40;;
16822;SDS011;8528;49.976;11.858;2024-03-29T12:16:07;1.10;;;1.00;;
16822;SDS011;8528;49.976;11.858;2024-03-29T12:18:34;1.27;;;1.10;;
16822;SDS011;8528;49.976;11.858;2024-03-29T12:21:01;3.13;;;1.00;;
16822;SDS011;8528;49.976;11.858;2024-03-29T12:23:28;0.90;;;0.90;;
16822;SDS011;8528;49.976;11.858;2024-03-29T12:25:55;2.20;;;1.13;;
16822;SDS011;8528;49.976;11.858;2024-03-29T12:28:23;1.60;;;1.20;;
16822;SDS011;8528;49.976;11.858;2024-03-29T12:30:50;1.20;;;1.10;;
16822;SDS011;8528;49.976;11.858;2024-03-29T12:33:18;2.23;;;1.27;;
16822;SDS011;8528;49.976;11.858;2024-03-29T12:35:48;1.20;;;1.10;;
16822;SDS011;8528;49.976;11.858;2024-03-29T12:38:18;2.43;;;1.20;;
16822;SDS011;8528;49.976;11.858;2024-03-29T12:40:46;1.40;;;1.10;;
16822;SDS011;8528;49.976;11.858;2024-03-29T12:43:14;1.20;;;1.10;;
16822;SDS011;8528;49.976;11.858;2024-03-29T12:45:44;1.40;;;1.10;;
16822;SDS011;8528;49.976;11.858;2024-03-29T12:50:49;1.10;;;1.00;;
16822;SDS011;8528;49.976;11.858;2024-03-29T12:53:15;1.30;;;1.20;;
16822;SDS011;8528;49.976;11.858;2024-03-29T12:55:42;1.00;;;1.00;;
16822;SDS011;8528;49.976;11.858;2024-03-29T12:58:12;1.30;;;1.20;;
16822;SDS011;8528;49.976;11.858;2024-03-29T13:00:43;1.03;;;0.97;;
16822;SDS011;8528;49.976;11.858;2024-03-29T13:03:09;0.90;;;0.90;;
16822;SDS011;8528;49.976;11.858;2024-03-29T13:05:35;1.10;;;0.97;;
16822;SDS011;8528;49.976;11.858;2024-03-29T13:08:09;1.90;;;1.70;;
16822;SDS011;8528;49.976;11.858;2024-03-29T13:10:39;1.37;;;1.20;;
16822;SDS011;8528;49.976;11.858;2024-03-29T13:13:06;0.90;;;0.90;;
16822;SDS011;8528;49.976;11.858;2024-03-29T13:15:33;2.40;;;1.17;;
16822;SDS011;8528;49.976;11.858;2024-03-29T13:18:03;1.77;;;1.13;;
16822;SDS011;8528;49.976;11.858;2024-03-29T13:20:30;1.00;;;0.97;;
16822;SDS011;8528;49.976;11.858;2024-03-29T13:22:58;1.20;;;1.00;;
16822;SDS011;8528;49.976;11.858;2024-03-29T13:25:24;1.30;;;1.00;;
16822;SDS011;8528;49.976;11.858;2024-03-29T13:27:52;1.10;;;0.90;;
16822;SDS011;8528;49.976;11.858;2024-03-29T13:30:20;1.00;;;0.90;;
16822;SDS011;8528;49.976;11.858;2024-03-29T13:32:47;0.97;;;0.93;;
16822;SDS011;8528;49.976;11.858;2024-03-29T13:35:14;0.80;;;0.80;;
16822;SDS011;8528;49.976;11.858;2024-03-29T13:37:44;1.10;;;1.00;;
16822;SDS011;8528;49.976;11.858;2024-03-29T13:40:18;1.20;;;1.00;;
16822;SDS011;8528;49.976;11.858;2024-03-29T13:42:46;1.23;;;1.07;;
16822;SDS011;8528;49.976;11.858;2024-03-29T13:45:14;1.67;;;1.13;;
16822;SDS011;8528;49.976;11.858;2024-03-29T13:47:41;1.37;;;1.27;;
16822;SDS011;8528;49.976;11.858;2024-03-29T13:50:08;1.93;;;1.20;;
16822;SDS011;8528;49.976;11.858;2024-03-29T13:52:35;1.37;;;1.10;;
16822;SDS011;8528;49.976;11.858;2024-03-29T13:55:01;1.07;;;0.80;;
16822;SDS011;8528;49.976;11.858;2024-03-29T13:57:29;2.87;;;1.03;;
16822;SDS011;8528;49.976;11.858;2024-03-29T13:59:55;1.60;;;1.10;;
16822;SDS011;8528;49.976;11.858;2024-03-29T14:02:20;1.57;;;1.13;;
16822;SDS011;8528;49.976;11.858;2024-03-29T14:04:48;1.20;;;1.10;;
16822;SDS011;8528;49.976;11.858;2024-03-29T14:07:15;1.07;;;0.97;;
16822;SDS011;8528;49.976;11.858;2024-03-29T14:09:43;1.87;;;1.00;;
16822;SDS011;8528;49.976;11.858;2024-03-29T14:12:09;0.97;;;0.97;;
16822;SDS011;8528;49.976;11.858;2024-03-29T14:14:35;1.60;;;1.10;;
16822;SDS011;8528;49.976;11.858;2024-03-29T14:17:02;1.10;;;1.00;;
16822;SDS011;8528;49.976;11.858;2024-03-29T14:19:32;0.90;;;0.90;;
16822;SDS011;8528;49.976;11.858;2024-03-29T14:22:02;0.90;;;0.90;;
16822;SDS011;8528;49.976;11.858;2024-03-29T14:24:29;0.90;;;0.90;;
16822;SDS011;8528;49.976;11.858;2024-03-29T14:26:59;0.90;;;0.90;;
16822;SDS011;8528;49.976;11.858;2024-03-29T14:29:25;1.00;;;1.00;;
16822;SDS011;8528;49.976;11.858;2024-03-29T14:31:51;1.03;;;0.90;;
16822;SDS011;8528;49.976;11.858;2024-03-29T14:34:20;1.57;;;1.00;;
16822;SDS011;8528;49.976;11.858;2024-03-29T14:36:47;0.87;;;0.87;;
16822;SDS011;8528;49.976;11.858;2024-03-29T14:39:13;1.30;;;0.90;;
16822;SDS011;8528;49.976;11.858;2024-03-29T14:41:41;1.10;;;1.00;;
16822;SDS011;8528;49.976;11.858;2024-03-29T14:44:07;1.37;;;1.27;;
16822;SDS011;8528;49.976;11.858;2024-03-29T14:46:33;1.20;;;1.00;;
16822;SDS011;8528;49.976;11.858;2024-03-29T14:49:03;0.90;;;0.90;;
16822;SDS011;8528;49.976;11.858;2024-03-29T14:51:32;1.33;;;0.87;;
16822;SDS011;8528;49.976;11.858;2024-03-29T14:53:59;0.97;;;0.80;;